ENSO/SRP METAR and TAF weather

Enter ICAO airport designator
Station Type Date Time Source
ENSO METAR 2018/07/20 14:20 UTC NOAA

ENSO 201420Z 33005KT 9999 FEW040 22/07 Q1012


Station Type Date Time Source
ENSO Decoded METAR 2018/07/20 14:20 UTC NOAA

Stord / Soerstokken, Norway (ENSO) 59-48N 005-21E
Jul 20, 2018 - 10:20 AM EDT / 2018.07.20 1420 UTC
Wind: from the NNW (330 degrees) at 6 MPH (5 KT):0
Visibility: greater than 7 mile(s):0
Sky conditions: mostly clear
Temperature: 71 F (22 C)
Dew Point: 44 F (7 C)
Relative Humidity: 37%
Pressure (altimeter): 29.88 in. Hg (1012 hPa)
ob: ENSO 201420Z 33005KT 9999 FEW040 22/07 Q1012
cycle: 14

Station Type Date Time Source
ENSO TAF UTC NOAA

Error!


Example: see airport list